createdAt,value
2023-02-20T00:00:56.779Z,1.20
2023-02-20T00:03:23.561Z,1.50
2023-02-20T00:05:50.509Z,1.20
2023-02-20T00:08:42.453Z,1.40
2023-02-20T00:11:09.323Z,1.00
2023-02-20T00:13:36.231Z,1.63
2023-02-20T00:16:03.383Z,0.80
2023-02-20T00:18:30.875Z,0.85
2023-02-20T00:23:51.670Z,0.80
2023-02-20T00:26:18.651Z,1.00
2023-02-20T00:28:46.015Z,1.00
2023-02-20T00:31:17.156Z,1.20
2023-02-20T00:33:45.311Z,1.20
2023-02-20T00:36:18.219Z,1.08
2023-02-20T00:38:46.226Z,1.30
2023-02-20T00:41:14.860Z,1.13
2023-02-20T00:43:42.762Z,1.10
2023-02-20T00:46:14.952Z,1.20
2023-02-20T00:48:42.166Z,1.33
2023-02-20T00:51:29.285Z,1.40
2023-02-20T00:53:56.171Z,1.00
2023-02-20T00:56:23.155Z,1.13
2023-02-20T00:59:15.347Z,1.10
2023-02-20T01:01:42.362Z,1.13
2023-02-20T01:04:10.284Z,1.20
2023-02-20T01:06:42.246Z,1.27
2023-02-20T01:09:12.304Z,1.10
2023-02-20T01:11:41.385Z,1.00
2023-02-20T01:17:01.576Z,1.20
2023-02-20T01:19:28.620Z,1.10
2023-02-20T01:21:55.823Z,1.50
2023-02-20T01:24:22.616Z,1.42
2023-02-20T01:26:50.130Z,1.40
2023-02-20T01:29:18.320Z,1.40
2023-02-20T01:31:52.971Z,1.20
2023-02-20T01:34:22.412Z,1.33
2023-02-20T01:36:51.181Z,1.70
2023-02-20T01:39:20.337Z,1.60
2023-02-20T01:41:52.661Z,1.70
2023-02-20T01:44:23.501Z,1.50
2023-02-20T01:46:54.335Z,1.27
2023-02-20T01:49:36.241Z,1.50
2023-02-20T01:52:14.032Z,1.00
2023-02-20T01:54:45.086Z,1.10
2023-02-20T01:57:18.023Z,1.30
2023-02-20T01:59:47.677Z,1.27
2023-02-20T02:02:15.365Z,1.38
2023-02-20T02:04:45.091Z,1.30
2023-02-20T02:07:12.274Z,1.37
2023-02-20T02:09:55.212Z,1.50
2023-02-20T02:12:25.849Z,1.38
2023-02-20T02:14:55.707Z,1.35
2023-02-20T02:17:28.516Z,1.20
2023-02-20T02:20:16.509Z,1.27
2023-02-20T02:23:17.377Z,1.80
2023-02-20T02:25:47.110Z,1.48
2023-02-20T02:28:25.879Z,1.35
2023-02-20T02:31:23.211Z,1.42
2023-02-20T02:34:28.304Z,1.70
2023-02-20T02:37:13.935Z,1.67
2023-02-20T02:39:54.387Z,1.77
2023-02-20T02:42:29.883Z,1.27
2023-02-20T02:45:21.029Z,2.15
2023-02-20T02:47:57.224Z,1.60
2023-02-20T02:50:32.984Z,1.60
2023-02-20T02:53:02.708Z,1.88
2023-02-20T02:55:32.119Z,2.30
2023-02-20T02:57:59.782Z,1.80
2023-02-20T03:00:40.630Z,2.07
2023-02-20T03:03:16.303Z,1.67
2023-02-20T03:06:12.283Z,1.95
2023-02-20T03:12:00.610Z,2.10
2023-02-20T03:14:39.110Z,1.83
2023-02-20T03:17:29.579Z,2.17
2023-02-20T03:20:01.321Z,1.98
2023-02-20T03:22:40.012Z,2.40
2023-02-20T03:25:38.273Z,1.70
2023-02-20T03:28:44.126Z,2.00
2023-02-20T03:31:14.521Z,1.88
2023-02-20T03:33:53.477Z,1.60
2023-02-20T03:36:37.658Z,1.45
2023-02-20T03:39:10.180Z,1.90
2023-02-20T03:42:06.633Z,1.87
2023-02-20T03:44:39.401Z,1.83
2023-02-20T03:47:17.275Z,1.60
2023-02-20T03:49:47.984Z,1.55
2023-02-20T03:52:18.628Z,1.20
2023-02-20T03:54:45.926Z,1.20
2023-02-20T03:57:17.730Z,0.90
2023-02-20T03:59:54.528Z,0.90
2023-02-20T04:02:42.704Z,0.73
2023-02-20T04:05:23.259Z,1.20
2023-02-20T04:08:06.011Z,1.40
2023-02-20T04:13:34.873Z,1.42
2023-02-20T04:16:03.132Z,2.00
2023-02-20T04:18:30.761Z,2.13
2023-02-20T04:21:01.401Z,1.80
2023-02-20T04:24:07.631Z,1.70
2023-02-20T04:26:36.297Z,1.92
2023-02-20T04:29:04.895Z,2.10
2023-02-20T04:31:37.023Z,1.98
2023-02-20T04:34:03.850Z,1.50
2023-02-20T04:36:30.839Z,1.65
2023-02-20T04:38:59.567Z,1.90
2023-02-20T04:41:31.075Z,2.20
2023-02-20T04:43:58.946Z,2.00
2023-02-20T04:46:26.263Z,1.50
2023-02-20T04:48:54.251Z,2.00
2023-02-20T04:51:21.178Z,1.95
2023-02-20T04:53:50.237Z,2.13
2023-02-20T04:56:17.124Z,1.80
2023-02-20T04:58:47.304Z,2.17
2023-02-20T05:01:21.462Z,1.80
2023-02-20T05:03:49.789Z,1.70
2023-02-20T05:06:16.609Z,1.77
2023-02-20T05:08:43.835Z,1.55
2023-02-20T05:11:11.354Z,1.60
2023-02-20T05:13:38.877Z,1.30
2023-02-20T05:16:06.356Z,1.55
2023-02-20T05:18:34.840Z,1.35
2023-02-20T05:21:01.740Z,1.42
2023-02-20T05:23:28.566Z,2.20
2023-02-20T05:25:55.540Z,1.60
2023-02-20T05:28:22.301Z,2.13
2023-02-20T05:30:49.269Z,1.90
2023-02-20T05:33:16.400Z,1.73
2023-02-20T05:35:43.375Z,1.87
2023-02-20T05:38:10.273Z,1.50
2023-02-20T05:40:37.130Z,1.40
2023-02-20T05:43:04.012Z,1.58
2023-02-20T05:45:30.835Z,2.05
2023-02-20T05:47:57.634Z,1.60
2023-02-20T05:50:24.441Z,1.70
2023-02-20T05:52:51.383Z,1.92
2023-02-20T05:55:18.220Z,1.85
2023-02-20T05:57:45.046Z,1.90
2023-02-20T06:00:12.383Z,1.90
2023-02-20T06:02:40.916Z,1.75
2023-02-20T06:05:08.048Z,1.90
2023-02-20T06:07:36.167Z,1.90
2023-02-20T06:10:04.849Z,1.55
2023-02-20T06:12:31.625Z,1.90
2023-02-20T06:14:58.398Z,1.90
2023-02-20T06:17:25.256Z,1.73
2023-02-20T06:19:52.180Z,1.70
2023-02-20T06:22:19.745Z,2.10
2023-02-20T06:24:47.721Z,2.30
2023-02-20T06:27:16.109Z,2.30
2023-02-20T06:29:42.989Z,1.90
2023-02-20T06:32:09.951Z,2.22
2023-02-20T06:34:36.862Z,1.80
2023-02-20T06:37:04.517Z,1.90
2023-02-20T06:39:33.015Z,1.90
2023-02-20T06:41:59.825Z,2.10
2023-02-20T06:44:26.657Z,1.80
2023-02-20T06:46:53.772Z,2.30
2023-02-20T06:49:20.588Z,2.00
2023-02-20T06:51:47.378Z,2.67
2023-02-20T06:54:14.418Z,3.10
2023-02-20T06:56:41.424Z,2.58
2023-02-20T06:59:08.268Z,2.55
2023-02-20T07:01:41.214Z,3.10
2023-02-20T07:04:15.969Z,3.38
2023-02-20T07:06:42.902Z,3.08
2023-02-20T07:09:10.311Z,2.92
2023-02-20T07:11:37.037Z,2.90
2023-02-20T07:14:03.819Z,3.00
2023-02-20T07:16:30.615Z,1.70
2023-02-20T07:18:57.432Z,1.70
2023-02-20T07:21:24.650Z,1.60
2023-02-20T07:23:51.756Z,2.20
2023-02-20T07:26:27.541Z,1.20
2023-02-20T07:28:55.921Z,1.30
2023-02-20T07:31:22.925Z,1.42
2023-02-20T07:33:50.816Z,1.77
2023-02-20T07:36:17.864Z,1.23
2023-02-20T07:38:54.335Z,1.20
2023-02-20T07:41:22.383Z,1.08
2023-02-20T07:43:49.074Z,1.10
2023-02-20T07:46:20.098Z,1.00
2023-02-20T07:48:47.962Z,1.10
2023-02-20T07:51:15.294Z,1.10
2023-02-20T07:53:48.798Z,1.00
2023-02-20T07:56:16.062Z,0.98
2023-02-20T07:58:42.917Z,1.00
2023-02-20T08:01:09.654Z,1.27
2023-02-20T08:03:37.313Z,1.00
2023-02-20T08:06:04.423Z,0.90
2023-02-20T08:08:31.145Z,0.90
2023-02-20T08:11:08.242Z,0.70
2023-02-20T08:13:36.640Z,0.70
2023-02-20T08:16:03.772Z,0.73
2023-02-20T08:18:30.623Z,0.98
2023-02-20T08:20:57.358Z,0.65
2023-02-20T08:23:25.426Z,1.25
2023-02-20T08:25:52.387Z,0.88
2023-02-20T08:28:21.826Z,0.63
2023-02-20T08:30:50.456Z,0.63
2023-02-20T08:33:17.240Z,0.88
2023-02-20T08:35:44.241Z,0.70
2023-02-20T08:41:19.120Z,0.80
2023-02-20T08:43:45.987Z,0.77
2023-02-20T08:46:13.692Z,0.70
2023-02-20T08:48:41.048Z,0.80
2023-02-20T08:51:08.713Z,0.50
2023-02-20T08:53:38.471Z,0.83
2023-02-20T08:56:31.494Z,0.90
2023-02-20T08:58:58.797Z,0.68
2023-02-20T09:01:25.523Z,0.63
2023-02-20T09:03:53.317Z,0.80
2023-02-20T09:06:22.030Z,0.90
2023-02-20T09:08:49.338Z,0.55
2023-02-20T09:11:19.807Z,0.40
2023-02-20T09:13:51.374Z,0.80
2023-02-20T09:16:21.224Z,0.55
2023-02-20T09:18:48.077Z,0.70
2023-02-20T09:21:41.388Z,0.38
2023-02-20T09:24:33.480Z,1.15
2023-02-20T09:27:06.369Z,0.80
2023-02-20T09:29:33.294Z,0.45
2023-02-20T09:32:00.137Z,0.50
2023-02-20T09:34:29.301Z,0.45
2023-02-20T09:36:56.057Z,0.43
2023-02-20T09:39:23.873Z,0.73
2023-02-20T09:42:05.683Z,0.60
2023-02-20T09:45:06.239Z,0.70
2023-02-20T09:48:00.426Z,0.50
2023-02-20T09:50:28.735Z,0.45
2023-02-20T09:53:06.354Z,0.45
2023-02-20T09:55:40.758Z,0.45
2023-02-20T09:58:20.408Z,0.50
2023-02-20T10:00:48.040Z,0.57
2023-02-20T10:06:25.955Z,0.50
2023-02-20T10:08:54.311Z,0.55
2023-02-20T10:12:03.536Z,0.53
2023-02-20T10:15:00.621Z,0.40
2023-02-20T10:17:36.984Z,0.32
2023-02-20T10:20:34.897Z,0.25
2023-02-20T10:23:28.537Z,0.50
2023-02-20T10:26:01.525Z,0.53
2023-02-20T10:28:29.437Z,0.30
2023-02-20T10:30:56.117Z,0.30
2023-02-20T10:33:45.026Z,0.22
2023-02-20T10:36:12.947Z,0.20
2023-02-20T10:39:10.789Z,0.40
2023-02-20T10:41:53.451Z,0.20
2023-02-20T10:44:51.731Z,0.20
2023-02-20T10:47:20.827Z,0.20
2023-02-20T10:50:00.369Z,0.32
2023-02-20T10:52:34.486Z,0.17
2023-02-20T10:55:12.444Z,0.20
2023-02-20T10:57:50.037Z,0.15
2023-02-20T11:00:28.373Z,0.20
2023-02-20T11:03:06.928Z,0.43
2023-02-20T11:05:41.475Z,0.20
2023-02-20T11:08:09.885Z,0.10
2023-02-20T11:10:36.707Z,0.30
2023-02-20T11:13:04.434Z,0.10
2023-02-20T11:15:34.632Z,0.20
2023-02-20T11:18:12.562Z,0.10
2023-02-20T11:20:42.441Z,0.30
2023-02-20T11:23:09.757Z,0.30
2023-02-20T11:25:40.482Z,0.20
2023-02-20T11:28:21.282Z,0.20
2023-02-20T11:30:57.821Z,0.20
2023-02-20T11:33:26.938Z,0.10
2023-02-20T11:35:58.388Z,0.20
2023-02-20T11:38:33.191Z,0.17
2023-02-20T11:41:02.468Z,0.40
2023-02-20T11:43:43.544Z,0.20
2023-02-20T11:46:22.452Z,0.20
2023-02-20T11:49:27.409Z,0.10
2023-02-20T11:52:09.439Z,0.10
2023-02-20T11:54:37.867Z,0.20
2023-02-20T12:00:22.494Z,0.20
2023-02-20T12:03:14.011Z,0.10
2023-02-20T12:05:48.394Z,0.20
2023-02-20T12:08:41.966Z,0.15
2023-02-20T12:11:17.395Z,0.20
2023-02-20T12:14:13.925Z,0.10
2023-02-20T12:16:51.354Z,0.20
2023-02-20T12:19:20.837Z,0.15
2023-02-20T12:22:23.429Z,0.20
2023-02-20T12:24:55.821Z,0.10
2023-02-20T12:31:16.593Z,0.10
2023-02-20T12:34:05.088Z,0.17
2023-02-20T12:37:09.609Z,0.10
2023-02-20T12:40:02.341Z,0.10
2023-02-20T12:42:42.478Z,0.20
2023-02-20T12:45:30.844Z,0.08
2023-02-20T12:48:06.449Z,0.03
2023-02-20T12:50:49.978Z,0.10
2023-02-20T12:53:43.470Z,0.10
2023-02-20T12:56:28.750Z,0.20
2023-02-20T12:59:08.589Z,0.13
2023-02-20T13:01:40.183Z,0.10
2023-02-20T13:04:23.355Z,0.10
2023-02-20T13:06:58.374Z,0.00
2023-02-20T13:09:32.798Z,0.15
2023-02-20T13:12:12.494Z,0.10
2023-02-20T13:14:59.468Z,0.00
2023-02-20T13:17:33.635Z,0.10
2023-02-20T13:20:31.366Z,0.10
2023-02-20T13:23:26.800Z,0.10
2023-02-20T13:25:56.384Z,0.00
2023-02-20T13:28:38.384Z,0.10
2023-02-20T13:31:16.428Z,0.00
2023-02-20T13:33:47.929Z,0.10
2023-02-20T13:36:39.352Z,0.00
2023-02-20T13:39:31.203Z,0.20
2023-02-20T13:42:30.438Z,0.00
2023-02-20T13:44:58.274Z,0.00
2023-02-20T13:47:32.385Z,0.10
2023-02-20T13:50:01.012Z,0.10
2023-02-20T13:52:40.506Z,0.03
2023-02-20T13:55:10.704Z,0.00
2023-02-20T13:57:52.322Z,0.10
2023-02-20T14:00:41.353Z,0.00
2023-02-20T14:03:14.580Z,0.00
2023-02-20T14:05:41.876Z,0.00
2023-02-20T14:08:18.359Z,0.00
2023-02-20T14:10:46.842Z,0.00
2023-02-20T14:13:30.818Z,0.00
2023-02-20T14:16:23.348Z,0.10
2023-02-20T14:18:51.484Z,0.03
2023-02-20T14:21:43.486Z,0.00
2023-02-20T14:24:23.409Z,0.00
2023-02-20T14:26:51.539Z,0.00
2023-02-20T14:29:27.559Z,0.00
2023-02-20T14:31:57.171Z,0.00
2023-02-20T14:34:53.427Z,0.00
2023-02-20T14:37:44.742Z,0.10
2023-02-20T14:40:32.491Z,0.00
2023-02-20T14:43:04.134Z,0.00
2023-02-20T14:45:34.459Z,0.00
2023-02-20T14:48:02.979Z,0.00
2023-02-20T14:50:33.162Z,0.00
2023-02-20T14:56:14.975Z,0.00
2023-02-20T14:58:43.867Z,0.00
2023-02-20T15:01:37.268Z,0.00
2023-02-20T15:04:15.347Z,0.00
2023-02-20T15:06:47.030Z,0.00
2023-02-20T15:09:22.362Z,0.05
2023-02-20T15:11:54.894Z,0.00
2023-02-20T15:14:29.288Z,0.00
2023-02-20T15:17:15.367Z,0.00
2023-02-20T15:19:43.996Z,0.00
2023-02-20T15:22:26.420Z,0.10
2023-02-20T15:25:30.703Z,0.00
2023-02-20T15:28:12.367Z,0.10
2023-02-20T15:31:01.320Z,0.03
2023-02-20T15:33:34.921Z,0.00
2023-02-20T15:36:02.875Z,0.00
2023-02-20T15:38:34.236Z,0.00
2023-02-20T15:41:04.209Z,0.00
2023-02-20T15:43:46.794Z,0.00
2023-02-20T15:46:17.888Z,0.00
2023-02-20T15:48:45.312Z,0.00
2023-02-20T15:51:17.962Z,0.10
2023-02-20T15:53:47.647Z,0.00
2023-02-20T15:56:16.345Z,0.00
2023-02-20T15:58:47.390Z,0.00
2023-02-20T16:01:15.230Z,0.00
2023-02-20T16:03:51.681Z,0.00
2023-02-20T16:06:24.463Z,0.00
2023-02-20T16:08:52.308Z,0.00
2023-02-20T16:11:23.419Z,0.00
2023-02-20T16:14:02.124Z,0.00
2023-02-20T16:16:34.601Z,0.00
2023-02-20T16:19:24.125Z,0.00
2023-02-20T16:22:00.024Z,0.00
2023-02-20T16:24:29.063Z,0.03
2023-02-20T16:26:57.707Z,0.00
2023-02-20T16:29:37.233Z,0.00
2023-02-20T16:32:08.515Z,0.00
2023-02-20T16:34:35.594Z,0.00
2023-02-20T16:37:02.566Z,0.00
2023-02-20T16:39:30.819Z,0.00
2023-02-20T16:41:59.519Z,0.00
2023-02-20T16:44:41.596Z,0.00
2023-02-20T16:47:14.307Z,0.00
2023-02-20T16:49:45.400Z,0.00
2023-02-20T16:52:40.097Z,0.00
2023-02-20T16:55:22.104Z,0.00
2023-02-20T16:57:50.272Z,0.00
2023-02-20T17:00:20.483Z,0.10
2023-02-20T17:02:48.622Z,0.03
2023-02-20T17:05:17.118Z,0.00
2023-02-20T17:07:46.991Z,0.00
2023-02-20T17:10:40.080Z,0.10
2023-02-20T17:13:09.284Z,0.00
2023-02-20T17:15:37.816Z,0.07
2023-02-20T17:18:05.402Z,0.03
2023-02-20T17:20:34.667Z,0.00
2023-02-20T17:23:05.189Z,0.00
2023-02-20T17:25:58.504Z,0.00
2023-02-20T17:28:30.421Z,0.07
2023-02-20T17:30:58.704Z,0.00
2023-02-20T17:33:27.731Z,0.10
2023-02-20T17:35:54.609Z,0.00
2023-02-20T17:38:48.162Z,0.00
2023-02-20T17:41:16.372Z,0.00
2023-02-20T17:43:43.799Z,0.00
2023-02-20T17:46:37.755Z,0.10
2023-02-20T17:49:05.608Z,0.10
2023-02-20T17:51:33.834Z,0.00
2023-02-20T17:54:04.049Z,0.10
2023-02-20T17:56:32.626Z,0.05
2023-02-20T17:59:03.658Z,0.10
2023-02-20T18:01:31.169Z,0.10
2023-02-20T18:04:00.704Z,0.05
2023-02-20T18:06:29.836Z,0.07
2023-02-20T18:08:57.466Z,0.05
2023-02-20T18:11:26.608Z,0.08
2023-02-20T18:13:55.631Z,0.00
2023-02-20T18:16:25.326Z,0.10
2023-02-20T18:18:56.135Z,0.10
2023-02-20T18:21:30.852Z,0.00
2023-02-20T18:24:00.782Z,0.00
2023-02-20T18:26:28.390Z,0.10
2023-02-20T18:28:56.380Z,0.00
2023-02-20T18:31:24.128Z,0.00
2023-02-20T18:33:55.264Z,0.03
2023-02-20T18:36:27.874Z,0.28
2023-02-20T18:38:57.209Z,0.00
2023-02-20T18:41:26.642Z,0.10
2023-02-20T18:43:55.016Z,0.10
2023-02-20T18:46:31.817Z,0.00
2023-02-20T18:49:00.573Z,0.00
2023-02-20T18:51:34.197Z,0.13
2023-02-20T18:54:11.148Z,0.00
2023-02-20T18:56:46.702Z,0.10
2023-02-20T18:59:16.820Z,0.00
2023-02-20T19:01:45.538Z,0.00
2023-02-20T19:04:17.771Z,0.20
2023-02-20T19:06:45.915Z,0.00
2023-02-20T19:09:21.398Z,0.20
2023-02-20T19:11:51.706Z,0.10
2023-02-20T19:14:26.350Z,0.10
2023-02-20T19:16:58.894Z,0.00
2023-02-20T19:19:32.768Z,0.00
2023-02-20T19:22:01.392Z,0.10
2023-02-20T19:24:29.156Z,0.00
2023-02-20T19:26:57.578Z,0.00
2023-02-20T19:29:26.454Z,0.10
2023-02-20T19:32:20.080Z,0.10
2023-02-20T19:34:51.680Z,0.10
2023-02-20T19:37:45.585Z,0.00
2023-02-20T19:40:14.134Z,0.10
2023-02-20T19:42:42.526Z,0.10
2023-02-20T19:45:10.997Z,0.00
2023-02-20T19:47:41.137Z,0.00
2023-02-20T19:50:12.905Z,0.00
2023-02-20T19:52:42.728Z,0.10
2023-02-20T19:55:21.980Z,0.00
2023-02-20T19:57:54.210Z,0.00
2023-02-20T20:00:22.275Z,0.00
2023-02-20T20:02:52.260Z,0.00
2023-02-20T20:05:21.041Z,0.00
2023-02-20T20:08:15.250Z,0.00
2023-02-20T20:11:09.085Z,0.00
2023-02-20T20:13:39.094Z,0.00
2023-02-20T20:16:07.498Z,0.00
2023-02-20T20:19:05.499Z,0.00
2023-02-20T20:21:36.335Z,0.00
2023-02-20T20:24:11.044Z,0.00
2023-02-20T20:26:41.317Z,0.00
2023-02-20T20:29:09.984Z,0.00
2023-02-20T20:31:44.328Z,0.00
2023-02-20T20:34:16.052Z,0.00
2023-02-20T20:36:46.664Z,0.00
2023-02-20T20:39:14.748Z,0.00
2023-02-20T20:42:07.166Z,0.00
2023-02-20T20:44:37.088Z,0.00
2023-02-20T20:47:05.506Z,0.08
2023-02-20T20:49:33.281Z,0.00
2023-02-20T20:52:04.815Z,0.00
2023-02-20T20:54:32.676Z,0.00
2023-02-20T20:57:01.765Z,0.00
2023-02-20T20:59:31.894Z,0.00
2023-02-20T21:02:00.593Z,0.00
2023-02-20T21:04:28.236Z,0.00
2023-02-20T21:06:58.922Z,0.00
2023-02-20T21:09:27.938Z,0.00
2023-02-20T21:11:56.052Z,0.00
2023-02-20T21:17:17.420Z,0.00
2023-02-20T21:19:44.520Z,0.00
2023-02-20T21:22:12.771Z,0.00
2023-02-20T21:24:43.581Z,0.20
2023-02-20T21:27:10.902Z,0.15
2023-02-20T21:29:41.629Z,0.00
2023-02-20T21:32:09.043Z,0.00
2023-02-20T21:34:36.929Z,0.00
2023-02-20T21:37:05.553Z,0.00
2023-02-20T21:39:32.761Z,0.00
2023-02-20T21:42:00.721Z,0.10
2023-02-20T21:44:29.754Z,0.00
2023-02-20T21:47:05.579Z,0.03
2023-02-20T21:49:34.451Z,0.10
2023-02-20T21:52:04.579Z,0.00
2023-02-20T21:54:33.736Z,0.10
2023-02-20T21:57:03.193Z,0.10
2023-02-20T21:59:33.337Z,0.00
2023-02-20T22:02:01.331Z,0.00
2023-02-20T22:04:30.564Z,0.00
2023-02-20T22:06:57.871Z,0.03
2023-02-20T22:09:25.766Z,0.00
2023-02-20T22:11:53.500Z,0.10
2023-02-20T22:14:21.131Z,0.10
2023-02-20T22:16:50.369Z,0.10
2023-02-20T22:19:17.150Z,0.00
2023-02-20T22:21:46.251Z,0.00
2023-02-20T22:24:20.408Z,0.00
2023-02-20T22:26:51.104Z,0.00
2023-02-20T22:29:18.399Z,0.00
2023-02-20T22:31:45.909Z,0.10
2023-02-20T22:34:14.828Z,0.00
2023-02-20T22:36:42.762Z,0.10
2023-02-20T22:39:12.941Z,0.00
2023-02-20T22:42:07.260Z,0.20
2023-02-20T22:44:35.580Z,0.10
2023-02-20T22:47:03.103Z,0.00
2023-02-20T22:49:33.192Z,0.00
2023-02-20T22:52:00.245Z,0.10
2023-02-20T22:54:29.050Z,0.00
2023-02-20T22:59:48.732Z,0.20
2023-02-20T23:02:15.790Z,0.08
2023-02-20T23:04:46.359Z,0.10
2023-02-20T23:07:14.986Z,0.00
2023-02-20T23:12:36.429Z,0.00
2023-02-20T23:15:03.598Z,0.15
2023-02-20T23:17:38.492Z,0.20
2023-02-20T23:20:16.794Z,0.05
2023-02-20T23:22:46.666Z,0.10
2023-02-20T23:25:13.413Z,0.17
2023-02-20T23:30:35.597Z,0.10
2023-02-20T23:33:02.529Z,0.00
2023-02-20T23:35:29.358Z,0.10
2023-02-20T23:37:56.501Z,0.10
2023-02-20T23:40:34.658Z,0.05
2023-02-20T23:43:03.928Z,0.00
2023-02-20T23:45:30.836Z,0.10
2023-02-20T23:47:58.423Z,0.10
2023-02-20T23:50:25.266Z,0.10
2023-02-20T23:52:52.065Z,0.20
2023-02-20T23:55:20.914Z,0.20
2023-02-20T23:57:47.728Z,0.30
